Piopolis, Illinois
Current Conditions -  °F | °C
As of 2:55 PM on Sunday 21 Dec 2014 (Local Time) from KFWC Reporting Station
Clear Clear  
Wind Chill: 39°   Ceiling: Unl
Heat Index: 43°   Visibility: 10mi
Dew Point: 30°   Wind: 7mph
Humidity: 61%   Direction: 110°ESE
Pressure: 30.09"   Gusts: NA
Location:  38.1018°N, 88.4953°W
Report Text: KFWC 212055Z AUTO 11006KT 10SM CLR 06/M01 A3009 RMK AO1 T00611009
Loading
Personal Weather Stations






























Interactive Weather Map New forecast layout! Learn more

10-Day Weather Forecast

Advertisements
Track Severe Weather on mobile